Big Rock, Illinois
Current Conditions -  °F | °C
As of 11:58 AM on Monday 24 Nov 2014 (Local Time) from KARR Reporting Station
Light Snow Light Snow  
Wind Chill: 19°   Ceiling: 1200
Heat Index: 32°   Visibility: 1mi
Dew Point: 27°   Wind: 23mph
Humidity: 82%   Direction: 250°WSW
Pressure: 29.36"   Gusts: 38mph
Location:  41.76°N, 88.55°W
Report Text: KARR 241758Z 25020G33KT 1SM -SN FEW008 BKN012 OVC017 00/M03 A2936 RMK AO2 PK WND 26031/1754 P0000 T00001028
Loading
Personal Weather Stations






























Interactive Weather Map New forecast layout! Learn more

10-Day Weather Forecast

Advertisements
Track Severe Weather on mobile